SKCL

Details ICAO SKCL (CLO)
Name Alfonso B. Aragon
Region Colombia
Timezone America/Bogota (UTC-5.0)
Plans Departing 380
Arriving 375
Stats Elevation 3,162 ft / 964 m (AMSL)
Location 3.543220° -76.381600°
Runways 1
Magnetic Variation 5.735° W
Sunrise 2018-12-18 11:05:58 UTC / 2018-12-18 06:05:58 Local
Sunset 2018-12-18 23:00:58 UTC / 2018-12-18 18:00:58 Local
Advertisement - Login to hide

Runways

ID Width Length Bearing (true/mag) Surface Threshold Overrun Markings Lighting
02 148 ft / 45 m 9,852 ft / 3,003 m 9.91° / 15.64° ASPHALT 0 ft / 0 m 0 ft / 0 m PREC-APP CENTERLINE EDGE THRESHOLD ALSF-I
20 148 ft / 45 m 9,852 ft / 3,003 m 189.91° / 195.64° ASPHALT 0 ft / 0 m 82 ft / 25 m PREC-APP CENTERLINE EDGE THRESHOLD ALSF-I

Approach Navaids

Runway Type Ident Frequency Range Bearing (true/mag) Slope Elevation
02 GS IPAS 109.90 MHz 10 nm / 19 km 9.91° / 15.64° 3.00° 3,162 ft / 964 m (AMSL)
02 MM MM - - 9.91° / 15.64° - 3,156 ft / 962 m (AMSL)
02 LOC-ILS IPAS 109.90 MHz 18 nm / 33 km 9.91° / 15.64° - 3,162 ft / 964 m (AMSL)

Map

Weather


0- 5 10 15 20 25 30 35+ Temperature / °C

Clouds and Precipitation
Forecast for 2018-12-18 12:00 UTC. Updated 6 hours ago

Ground ~20,000 ft ~40,000 ft Winds

METAR

SKCL 181500Z VRB03KT 9000 SCT023 27/19 A3003

TAF

Not found

Frequencies

Ground 121.90 MHz
Tower 118.10 MHz
Recorded 115.50 MHz ATIS
Warning: Do not use this data for real-world aviation or navigation. No guarantee of current accuracy is given.